createdAt,value
2022-11-12T00:05:11.123Z,12.09
2022-11-12T00:10:29.569Z,12.27
2022-11-12T00:15:45.792Z,12.57
2022-11-12T00:21:00.952Z,12.45
2022-11-12T00:26:16.721Z,12.32
2022-11-12T00:31:33.898Z,12.66
2022-11-12T00:36:50.545Z,12.54
2022-11-12T00:42:06.425Z,12.12
2022-11-12T00:47:23.106Z,12.18
2022-11-12T00:52:38.111Z,12.31
2022-11-12T00:57:57.525Z,12.32
2022-11-12T01:03:15.759Z,11.90
2022-11-12T01:08:31.126Z,12.36
2022-11-12T01:13:47.992Z,12.35
2022-11-12T01:19:06.804Z,11.94
2022-11-12T01:24:22.143Z,11.82
2022-11-12T01:29:38.098Z,11.59
2022-11-12T01:34:53.486Z,12.09
2022-11-12T01:40:09.289Z,11.78
2022-11-12T01:45:25.452Z,11.61
2022-11-12T01:50:41.101Z,12.10
2022-11-12T01:55:56.856Z,12.40
2022-11-12T02:01:12.948Z,11.91
2022-11-12T02:06:28.062Z,11.50
2022-11-12T02:11:43.445Z,11.38
2022-11-12T02:17:00.062Z,11.42
2022-11-12T02:22:18.829Z,11.70
2022-11-12T02:27:34.234Z,11.93
2022-11-12T02:32:49.375Z,11.82
2022-11-12T02:38:07.784Z,11.86
2022-11-12T02:43:23.136Z,11.59
2022-11-12T02:48:38.160Z,11.92
2022-11-12T02:53:53.910Z,11.61
2022-11-12T02:59:09.151Z,11.57
2022-11-12T03:04:24.802Z,11.75
2022-11-12T03:09:40.496Z,12.04
2022-11-12T03:14:55.750Z,12.25
2022-11-12T03:20:10.778Z,12.04
2022-11-12T03:25:28.656Z,11.89
2022-11-12T03:30:44.238Z,11.45
2022-11-12T03:36:00.231Z,11.55
2022-11-12T03:41:16.410Z,11.39
2022-11-12T03:46:33.782Z,11.20
2022-11-12T03:51:49.273Z,11.38
2022-11-12T03:57:05.064Z,11.65
2022-11-12T04:02:20.270Z,11.69
2022-11-12T04:07:53.589Z,12.11
2022-11-12T04:13:28.250Z,12.35
2022-11-12T04:19:02.573Z,12.23
2022-11-12T04:24:36.095Z,12.41
2022-11-12T04:30:11.014Z,12.24
2022-11-12T04:35:29.349Z,12.35
2022-11-12T04:41:02.562Z,12.25
2022-11-12T04:46:20.884Z,12.37
2022-11-12T04:51:54.758Z,12.59
2022-11-12T04:57:10.435Z,12.70
2022-11-12T05:02:26.300Z,12.73
2022-11-12T05:07:41.617Z,12.83
2022-11-12T05:12:56.860Z,12.87
2022-11-12T05:18:15.149Z,12.95
2022-11-12T05:23:30.305Z,12.97
2022-11-12T05:28:45.545Z,13.02
2022-11-12T05:34:01.532Z,13.10
2022-11-12T05:39:16.870Z,13.01
2022-11-12T05:44:32.513Z,13.03
2022-11-12T05:49:48.604Z,13.18
2022-11-12T05:55:04.285Z,13.25
2022-11-12T06:00:19.725Z,13.30
2022-11-12T06:05:37.835Z,13.09
2022-11-12T06:10:53.922Z,13.08
2022-11-12T06:16:09.191Z,12.85
2022-11-12T06:21:27.079Z,12.74
2022-11-12T06:26:42.600Z,12.81
2022-11-12T06:31:58.890Z,12.94
2022-11-12T06:37:15.365Z,13.01
2022-11-12T06:42:34.033Z,13.02
2022-11-12T06:47:49.733Z,13.06
2022-11-12T06:53:05.406Z,13.06
2022-11-12T06:58:20.559Z,12.85
2022-11-12T07:03:38.895Z,12.92
2022-11-12T07:08:56.796Z,12.93
2022-11-12T07:14:14.036Z,12.97
2022-11-12T07:19:29.771Z,12.99
2022-11-12T07:24:47.772Z,12.98
2022-11-12T07:30:03.494Z,12.97
2022-11-12T07:35:20.516Z,12.37
2022-11-12T07:40:37.980Z,12.42
2022-11-12T07:45:57.089Z,11.68
2022-11-12T07:51:16.067Z,11.11
2022-11-12T07:56:34.850Z,11.44
2022-11-12T08:01:50.258Z,11.87
2022-11-12T08:07:08.390Z,12.03
2022-11-12T08:12:24.766Z,12.02
2022-11-12T08:17:40.459Z,11.59
2022-11-12T08:22:59.314Z,11.64
2022-11-12T08:28:15.284Z,11.82
2022-11-12T08:33:30.926Z,11.92
2022-11-12T08:38:46.174Z,12.18
2022-11-12T08:44:08.471Z,12.06
2022-11-12T08:49:24.306Z,12.11
2022-11-12T08:54:39.459Z,11.79
2022-11-12T08:59:55.070Z,11.76
2022-11-12T09:05:15.024Z,11.56
2022-11-12T09:10:30.161Z,11.96
2022-11-12T09:15:46.109Z,12.25
2022-11-12T09:21:01.967Z,12.53
2022-11-12T09:26:17.629Z,11.97
2022-11-12T09:31:33.778Z,12.03
2022-11-12T09:36:49.510Z,12.30
2022-11-12T09:42:09.130Z,12.09
2022-11-12T09:47:28.359Z,12.08
2022-11-12T09:52:44.070Z,12.43
2022-11-12T09:57:59.600Z,12.78
2022-11-12T10:03:33.742Z,12.62
2022-11-12T10:08:54.660Z,12.71
2022-11-12T10:14:18.980Z,13.08
2022-11-12T10:19:56.881Z,13.28
2022-11-12T10:25:19.174Z,13.22
2022-11-12T10:30:38.558Z,13.35
2022-11-12T10:35:58.516Z,13.50
2022-11-12T10:41:21.223Z,13.33
2022-11-12T10:46:38.673Z,13.26
2022-11-12T10:51:55.490Z,13.02
2022-11-12T10:57:22.357Z,13.21
2022-11-12T11:02:38.511Z,12.73
2022-11-12T11:07:54.795Z,13.11
2022-11-12T11:13:16.796Z,12.84
2022-11-12T11:18:34.831Z,12.97
2022-11-12T11:23:55.095Z,13.17
2022-11-12T11:29:18.090Z,13.33
2022-11-12T11:34:38.371Z,13.25
2022-11-12T11:39:58.370Z,13.13
2022-11-12T11:45:17.793Z,13.33
2022-11-12T11:50:33.739Z,13.30
2022-11-12T11:55:53.126Z,13.38
2022-11-12T12:01:14.659Z,13.57
2022-11-12T12:06:33.025Z,13.26
2022-11-12T12:11:55.753Z,13.39
2022-11-12T12:17:21.065Z,13.84
2022-11-12T12:22:55.945Z,13.70
2022-11-12T12:28:18.352Z,13.76
2022-11-12T12:33:37.656Z,13.83
2022-11-12T12:39:04.773Z,13.87
2022-11-12T12:44:21.605Z,13.92
2022-11-12T12:49:40.006Z,14.01
2022-11-12T12:54:58.603Z,14.16
2022-11-12T13:00:29.403Z,14.29
2022-11-12T13:05:46.084Z,14.35
2022-11-12T13:11:02.387Z,14.20
2022-11-12T13:16:32.774Z,14.19
2022-11-12T13:22:09.048Z,14.15
2022-11-12T13:27:39.629Z,14.30
2022-11-12T13:33:01.714Z,14.40
2022-11-12T13:38:19.553Z,14.51
2022-11-12T13:43:37.511Z,14.53
2022-11-12T13:48:56.449Z,14.54
2022-11-12T13:54:26.109Z,14.60
2022-11-12T13:59:43.395Z,14.60
2022-11-12T14:04:58.967Z,14.18
2022-11-12T14:10:23.946Z,14.51
2022-11-12T14:15:54.527Z,14.52
2022-11-12T14:21:18.830Z,14.61
2022-11-12T14:26:39.319Z,14.55
2022-11-12T14:32:03.102Z,14.38
2022-11-12T14:37:32.624Z,14.46
2022-11-12T14:42:48.661Z,14.50
2022-11-12T14:48:09.268Z,14.35
2022-11-12T14:53:29.300Z,14.32
2022-11-12T14:58:45.871Z,14.32
2022-11-12T15:04:05.493Z,14.42
2022-11-12T15:09:32.749Z,14.43
2022-11-12T15:14:49.270Z,14.43
2022-11-12T15:20:06.591Z,14.56
2022-11-12T15:25:23.298Z,14.64
2022-11-12T15:30:39.641Z,14.66
2022-11-12T15:35:58.742Z,14.79
2022-11-12T15:41:22.095Z,14.80
2022-11-12T15:46:38.737Z,14.85
2022-11-12T15:51:54.035Z,14.90
2022-11-12T15:57:12.909Z,14.91
2022-11-12T16:02:30.263Z,14.87
2022-11-12T16:07:45.484Z,14.89
2022-11-12T16:13:01.432Z,14.84
2022-11-12T16:18:17.519Z,14.83
2022-11-12T16:23:32.870Z,14.79
2022-11-12T16:28:48.073Z,14.89
2022-11-12T16:34:04.240Z,14.88
2022-11-12T16:39:19.401Z,14.68
2022-11-12T16:44:36.415Z,14.65
2022-11-12T16:49:56.836Z,14.56
2022-11-12T16:55:12.515Z,14.62
2022-11-12T17:00:27.962Z,14.38
2022-11-12T17:05:46.126Z,14.27
2022-11-12T17:11:07.239Z,14.17
2022-11-12T17:16:32.508Z,14.20
2022-11-12T17:21:51.023Z,14.25
2022-11-12T17:27:06.402Z,14.16
2022-11-12T17:32:21.829Z,13.98
2022-11-12T17:37:37.839Z,13.83
2022-11-12T17:42:53.747Z,13.57
2022-11-12T17:48:09.091Z,13.59
2022-11-12T17:53:25.784Z,13.39
2022-11-12T17:58:41.000Z,13.36
2022-11-12T18:03:56.684Z,13.44
2022-11-12T18:09:17.476Z,13.35
2022-11-12T18:14:36.641Z,13.33
2022-11-12T18:19:51.940Z,13.35
2022-11-12T18:25:12.217Z,13.40
2022-11-12T18:30:27.800Z,13.72
2022-11-12T18:35:43.381Z,13.89
2022-11-12T18:41:06.552Z,13.79
2022-11-12T18:46:23.514Z,13.85
2022-11-12T18:51:39.349Z,13.62
2022-11-12T18:56:55.488Z,13.20
2022-11-12T19:02:11.251Z,13.34
2022-11-12T19:07:26.879Z,13.65
2022-11-12T19:12:42.764Z,13.68
2022-11-12T19:17:58.251Z,13.80
2022-11-12T19:23:13.839Z,13.69
2022-11-12T19:28:30.349Z,13.57
2022-11-12T19:33:46.272Z,13.53
2022-11-12T19:39:02.478Z,13.32
2022-11-12T19:44:20.850Z,13.18
2022-11-12T19:49:35.938Z,13.15
2022-11-12T19:54:51.020Z,12.98
2022-11-12T20:00:08.085Z,12.59
2022-11-12T20:05:23.679Z,12.65
2022-11-12T20:10:38.729Z,12.63
2022-11-12T20:15:54.553Z,12.61
2022-11-12T20:21:10.135Z,12.65
2022-11-12T20:26:26.184Z,12.91
2022-11-12T20:31:43.169Z,13.08
2022-11-12T20:37:01.712Z,13.25
2022-11-12T20:42:17.310Z,13.08
2022-11-12T20:47:33.306Z,13.25
2022-11-12T20:52:48.431Z,13.25
2022-11-12T20:58:06.672Z,13.44
2022-11-12T21:03:22.792Z,13.36
2022-11-12T21:08:38.499Z,13.50
2022-11-12T21:13:53.866Z,13.15
2022-11-12T21:19:09.661Z,13.06
2022-11-12T21:24:56.061Z,13.24
2022-11-12T21:30:11.255Z,13.22
2022-11-12T21:35:31.578Z,13.01
2022-11-12T21:40:49.264Z,12.87
2022-11-12T21:46:07.117Z,12.76
2022-11-12T21:51:24.660Z,12.34
2022-11-12T21:56:43.454Z,11.89
2022-11-12T22:02:00.724Z,11.58
2022-11-12T22:07:16.918Z,11.49
2022-11-12T22:12:32.277Z,11.23
2022-11-12T22:17:47.727Z,11.26
2022-11-12T22:23:03.781Z,11.08
2022-11-12T22:28:18.812Z,10.75
2022-11-12T22:33:34.417Z,10.58
2022-11-12T22:38:51.483Z,10.54
2022-11-12T22:44:06.990Z,10.73
2022-11-12T22:49:22.387Z,10.68
2022-11-12T22:54:38.118Z,10.96
2022-11-12T22:59:53.523Z,10.98
2022-11-12T23:05:08.669Z,11.00
2022-11-12T23:10:31.476Z,11.57
2022-11-12T23:15:50.038Z,11.80
2022-11-12T23:21:06.746Z,11.70
2022-11-12T23:26:26.860Z,11.94
2022-11-12T23:31:42.277Z,12.23
2022-11-12T23:36:57.350Z,11.95
2022-11-12T23:42:13.510Z,11.85
2022-11-12T23:47:28.920Z,11.79
2022-11-12T23:52:44.370Z,11.75
2022-11-12T23:58:00.050Z,11.79
